Time;durP1;ratioP1;P1;durP2;ratioP2;P2;SDS_P1;SDS_P2;PMS_P1;PMS_P2;Temp;Humidity;BMP_temperature;BMP_pressure;BME280_temperature;BME280_humidity;BME280_pressure;Samples;Min_cycle;Max_cycle;Signal;HPM_P1;HPM_P2
2021/04/05 00:00:23;;;;;;;25.85;7.07;;;;;;;;;;5039963;28;20587;-65
2021/04/05 00:02:52;;;;;;;20.25;8.43;;;;;;;;;;5039356;28;20148;-63
2021/04/05 00:05:22;;;;;;;28.23;7.65;;;;;;;;;;5037262;28;20043;-66
2021/04/05 00:07:49;;;;;;;19.20;7.72;;;;;;;;;;5036323;28;20017;-72
2021/04/05 00:10:17;;;;;;;27.25;7.57;;;;;;;;;;5040885;28;20051;-62
2021/04/05 00:12:46;;;;;;;28.52;9.35;;;;;;;;;;5043255;28;20029;-64
2021/04/05 00:15:12;;;;;;;23.38;7.90;;;;;;;;;;5038462;28;20601;-61
2021/04/05 00:17:39;;;;;;;23.90;8.45;;;;;;;;;;5039935;28;20037;-62
2021/04/05 00:20:08;;;;;;;29.65;7.25;;;;;;;;;;5037112;28;20124;-63
2021/04/05 00:22:34;;;;;;;24.30;7.70;;;;;;;;;;5021814;28;20056;-64
2021/04/05 00:25:03;;;;;;;20.67;6.97;;;;;;;;;;5039744;28;20025;-63
2021/04/05 00:27:29;;;;;;;38.30;7.68;;;;;;;;;;5039515;28;20032;-62
2021/04/05 00:29:57;;;;;;;22.05;7.20;;;;;;;;;;5037518;28;20834;-63
2021/04/05 00:32:25;;;;;;;20.73;6.75;;;;;;;;;;5025729;28;20036;-62
2021/04/05 00:34:54;;;;;;;24.30;7.75;;;;;;;;;;5021373;28;20028;-62
2021/04/05 00:37:22;;;;;;;26.30;7.38;;;;;;;;;;5036061;28;20037;-62
2021/04/05 00:39:48;;;;;;;27.02;7.18;;;;;;;;;;5026193;28;20038;-62
2021/04/05 00:42:17;;;;;;;34.80;9.00;;;;;;;;;;5028928;28;20557;-65
2021/04/05 00:44:42;;;;;;;34.85;8.77;;;;;;;;;;5035828;28;20056;-62
2021/04/05 00:47:08;;;;;;;31.63;7.50;;;;;;;;;;5050900;28;20046;-63
2021/04/05 00:49:34;;;;;;;22.55;7.55;;;;;;;;;;5067123;28;20116;-63
2021/04/05 00:52:04;;;;;;;25.33;7.57;;;;;;;;;;5065146;28;20189;-62
2021/04/05 00:54:30;;;;;;;25.08;7.88;;;;;;;;;;5064656;28;20024;-63
2021/04/05 00:57:01;;;;;;;23.27;7.78;;;;;;;;;;5066414;28;20043;-64
2021/04/05 00:59:27;;;;;;;29.40;7.40;;;;;;;;;;5065062;28;20035;-63
2021/04/05 01:01:52;;;;;;;25.52;7.78;;;;;;;;;;5067018;28;20058;-63
2021/04/05 01:04:18;;;;;;;41.90;8.70;;;;;;;;;;5065445;28;20031;-62
2021/04/05 01:06:44;;;;;;;23.05;7.50;;;;;;;;;;5064973;28;20036;-63
2021/04/05 01:09:10;;;;;;;37.47;8.23;;;;;;;;;;5066123;28;20032;-63
2021/04/05 01:11:41;;;;;;;27.33;7.43;;;;;;;;;;5066367;28;20592;-67
2021/04/05 01:14:09;;;;;;;39.20;7.93;;;;;;;;;;5066706;28;20059;-65
2021/04/05 01:16:34;;;;;;;34.13;8.48;;;;;;;;;;5050933;28;20743;-64
2021/04/05 01:19:02;;;;;;;31.40;8.32;;;;;;;;;;5066399;28;20059;-66
2021/04/05 01:21:28;;;;;;;17.25;7.03;;;;;;;;;;5068722;28;20154;-64
2021/04/05 01:23:54;;;;;;;30.10;7.80;;;;;;;;;;5052633;28;20023;-68
2021/04/05 01:26:20;;;;;;;21.58;7.43;;;;;;;;;;5064652;28;20935;-62
2021/04/05 01:28:45;;;;;;;16.02;6.35;;;;;;;;;;5083383;27;20035;-64
2021/04/05 01:31:11;;;;;;;24.80;7.40;;;;;;;;;;5068686;28;20035;-63
2021/04/05 01:33:40;;;;;;;25.58;6.85;;;;;;;;;;5034343;28;20505;-64
2021/04/05 01:36:14;;;;;;;20.25;7.30;;;;;;;;;;5067920;28;20032;-63
2021/04/05 01:38:44;;;;;;;28.00;7.47;;;;;;;;;;5065287;28;20058;-64
2021/04/05 01:41:09;;;;;;;21.52;6.75;;;;;;;;;;5068154;28;20554;-64
2021/04/05 01:43:36;;;;;;;16.27;6.45;;;;;;;;;;5065608;28;20034;-67
2021/04/05 01:46:05;;;;;;;25.00;7.07;;;;;;;;;;5063604;28;20039;-66
2021/04/05 01:48:32;;;;;;;27.73;7.38;;;;;;;;;;5048540;28;20063;-64
2021/04/05 01:51:02;;;;;;;20.58;6.60;;;;;;;;;;5074491;28;20106;-64
2021/04/05 01:53:28;;;;;;;26.75;7.15;;;;;;;;;;5065810;28;20122;-70
2021/04/05 01:55:57;;;;;;;20.15;6.65;;;;;;;;;;5064848;28;20055;-67
2021/04/05 01:58:24;;;;;;;26.95;6.80;;;;;;;;;;5066031;28;20542;-72
2021/04/05 02:00:50;;;;;;;22.95;5.65;;;;;;;;;;5066506;28;20145;-68
2021/04/05 02:03:16;;;;;;;25.35;7.05;;;;;;;;;;5065357;28;20032;-70
2021/04/05 02:05:48;;;;;;;27.90;5.82;;;;;;;;;;5066299;28;20102;-66
2021/04/05 02:08:16;;;;;;;27.85;6.53;;;;;;;;;;5067466;28;20096;-70
2021/04/05 02:10:45;;;;;;;21.25;5.85;;;;;;;;;;5066157;28;20025;-64
2021/04/05 02:13:13;;;;;;;28.88;5.78;;;;;;;;;;5065238;28;20024;-69
2021/04/05 02:15:38;;;;;;;26.33;5.72;;;;;;;;;;5067562;28;20089;-67
2021/04/05 02:18:09;;;;;;;27.00;5.20;;;;;;;;;;5065725;28;20139;-64
2021/04/05 02:20:38;;;;;;;21.00;5.10;;;;;;;;;;5066393;28;20146;-65
2021/04/05 02:23:04;;;;;;;24.58;6.30;;;;;;;;;;5065829;28;21127;-64
2021/04/05 02:25:31;;;;;;;24.52;4.90;;;;;;;;;;5065449;28;20035;-66
2021/04/05 02:27:57;;;;;;;16.83;5.18;;;;;;;;;;5067214;28;20036;-62
2021/04/05 02:30:27;;;;;;;16.30;4.38;;;;;;;;;;5067086;28;20039;-64
2021/04/05 02:32:57;;;;;;;22.60;5.13;;;;;;;;;;5066932;28;20113;-64
2021/04/05 02:35:23;;;;;;;16.25;4.85;;;;;;;;;;5064290;28;20024;-67
2021/04/05 02:37:51;;;;;;;21.23;5.47;;;;;;;;;;5066191;28;20599;-62
2021/04/05 02:40:17;;;;;;;20.58;4.00;;;;;;;;;;5050408;28;20044;-64
2021/04/05 02:42:45;;;;;;;20.20;5.18;;;;;;;;;;5064429;28;20036;-67
2021/04/05 02:45:14;;;;;;;24.42;4.50;;;;;;;;;;5051246;28;20570;-66
2021/04/05 02:47:40;;;;;;;20.38;4.65;;;;;;;;;;5066582;28;20048;-71
2021/04/05 02:50:06;;;;;;;24.75;5.93;;;;;;;;;;5053105;28;20028;-68
2021/04/05 02:52:36;;;;;;;17.02;4.88;;;;;;;;;;5067373;28;20051;-63
2021/04/05 02:55:06;;;;;;;23.45;5.72;;;;;;;;;;5067019;28;20123;-64
2021/04/05 02:57:36;;;;;;;24.15;5.25;;;;;;;;;;5043291;28;20058;-64
2021/04/05 03:00:05;;;;;;;18.85;4.57;;;;;;;;;;5083544;27;20074;-62
2021/04/05 03:02:30;;;;;;;23.15;5.13;;;;;;;;;;5060194;28;20028;-67
2021/04/05 03:04:57;;;;;;;25.60;5.40;;;;;;;;;;5069833;28;20050;-64
2021/04/05 03:07:25;;;;;;;17.40;5.20;;;;;;;;;;5068978;28;20047;-63
2021/04/05 03:09:54;;;;;;;25.48;5.30;;;;;;;;;;5053199;28;20032;-65
2021/04/05 03:12:19;;;;;;;9.68;3.25;;;;;;;;;;5067437;28;20024;-59
2021/04/05 03:14:48;;;;;;;13.75;1.95;;;;;;;;;;5071274;28;20092;-60
2021/04/05 03:17:14;;;;;;;16.40;2.03;;;;;;;;;;5068613;28;20039;-60
2021/04/05 03:19:40;;;;;;;14.13;2.03;;;;;;;;;;5069332;28;20078;-60
2021/04/05 03:22:09;;;;;;;11.45;2.08;;;;;;;;;;5067218;28;20056;-62
2021/04/05 03:24:37;;;;;;;8.82;2.33;;;;;;;;;;5069133;28;20034;-59
2021/04/05 03:27:07;;;;;;;8.75;2.15;;;;;;;;;;5067831;28;20023;-60
2021/04/05 03:29:35;;;;;;;12.32;1.63;;;;;;;;;;5071334;28;20031;-61
2021/04/05 03:32:02;;;;;;;15.15;2.67;;;;;;;;;;5071300;28;20139;-61
2021/04/05 03:34:31;;;;;;;18.73;2.78;;;;;;;;;;5067818;28;20043;-60
2021/04/05 03:37:02;;;;;;;11.77;2.47;;;;;;;;;;5066039;28;20130;-63
2021/04/05 03:39:28;;;;;;;9.13;1.77;;;;;;;;;;5067427;28;20968;-63
2021/04/05 03:41:54;;;;;;;6.40;1.20;;;;;;;;;;5066126;28;20028;-61
2021/04/05 03:44:41;;;;;;;5.32;1.20;;;;;;;;;;5067053;28;20621;-61
2021/04/05 03:47:32;;;;;;;6.68;0.80;;;;;;;;;;5065698;28;20068;-66
2021/04/05 03:50:13;;;;;;;10.20;1.00;;;;;;;;;;5060469;28;20138;-61
2021/04/05 03:52:56;;;;;;;10.93;0.98;;;;;;;;;;5070539;28;20039;-60
2021/04/05 03:55:25;;;;;;;5.57;0.93;;;;;;;;;;5068226;28;20039;-59
2021/04/05 03:57:55;;;;;;;5.85;0.73;;;;;;;;;;5067265;28;20826;-61
2021/04/05 04:00:25;;;;;;;2.15;0.52;;;;;;;;;;5066897;28;20026;-59
2021/04/05 04:02:52;;;;;;;4.18;0.52;;;;;;;;;;5067956;28;20616;-60
2021/04/05 04:05:27;;;;;;;3.15;0.80;;;;;;;;;;5076120;28;20393;-60
2021/04/05 04:10:45;;;;;;;3.40;0.63;;;;;;;;;;5067817;28;20119;-58
2021/04/05 04:13:12;;;;;;;1.20;0.60;;;;;;;;;;5068078;28;20035;-62
2021/04/05 04:15:41;;;;;;;9.43;0.82;;;;;;;;;;5068244;28;20116;-59
2021/04/05 04:18:07;;;;;;;0.40;0.30;;;;;;;;;;5068897;28;20035;-59
2021/04/05 04:20:33;;;;;;;3.85;0.40;;;;;;;;;;5026275;28;20822;-59
2021/04/05 04:23:01;;;;;;;1.52;0.25;;;;;;;;;;5069621;28;20045;-59
2021/04/05 04:25:27;;;;;;;1.17;0.45;;;;;;;;;;5067214;28;20035;-61
2021/04/05 04:27:55;;;;;;;5.50;0.52;;;;;;;;;;5067869;28;20055;-59
2021/04/05 04:30:36;;;;;;;9.35;0.68;;;;;;;;;;5052561;28;20139;-60
2021/04/05 04:33:05;;;;;;;3.05;0.50;;;;;;;;;;5051827;28;20131;-58
2021/04/05 04:35:31;;;;;;;0.77;0.45;;;;;;;;;;5070128;28;20032;-59
2021/04/05 04:38:00;;;;;;;3.95;0.60;;;;;;;;;;5064253;28;20470;-59
2021/04/05 04:40:29;;;;;;;5.03;0.68;;;;;;;;;;5054287;28;20453;-59
2021/04/05 04:42:55;;;;;;;4.45;0.70;;;;;;;;;;5066627;28;21290;-61
2021/04/05 04:45:21;;;;;;;5.82;0.30;;;;;;;;;;5041978;28;20086;-58
2021/04/05 04:47:52;;;;;;;7.05;0.50;;;;;;;;;;5078122;27;20048;-57
2021/04/05 04:50:18;;;;;;;8.88;0.70;;;;;;;;;;5051207;27;20043;-59
2021/04/05 04:52:43;;;;;;;5.63;0.85;;;;;;;;;;5088320;27;20023;-59
2021/04/05 04:55:11;;;;;;;3.78;1.27;;;;;;;;;;5071273;27;20031;-58
2021/04/05 04:57:44;;;;;;;2.13;0.77;;;;;;;;;;5069308;27;20103;-57
2021/04/05 05:00:10;;;;;;;3.45;0.57;;;;;;;;;;5069184;27;20032;-58
2021/04/05 05:02:41;;;;;;;3.00;0.43;;;;;;;;;;5085535;27;20047;-59
2021/04/05 05:05:11;;;;;;;3.00;0.35;;;;;;;;;;5088066;27;20038;-57
2021/04/05 05:07:46;;;;;;;6.93;0.85;;;;;;;;;;5088247;27;20842;-57
2021/04/05 05:10:14;;;;;;;0.20;0.13;;;;;;;;;;5087959;27;20030;-64
2021/04/05 05:12:40;;;;;;;0.38;0.13;;;;;;;;;;5070337;28;20035;-60
2021/04/05 05:15:09;;;;;;;0.40;0.15;;;;;;;;;;5051063;27;20043;-59
2021/04/05 05:17:41;;;;;;;6.93;0.90;;;;;;;;;;5069774;27;20547;-59
2021/04/05 05:20:09;;;;;;;1.75;0.45;;;;;;;;;;5067670;27;20053;-59
2021/04/05 05:22:40;;;;;;;4.35;0.40;;;;;;;;;;5089153;27;20548;-59
2021/04/05 05:25:14;;;;;;;2.83;1.00;;;;;;;;;;5072475;27;20453;-60
2021/04/05 05:27:47;;;;;;;6.73;0.93;;;;;;;;;;5053187;27;20032;-62
2021/04/05 05:30:20;;;;;;;7.13;1.10;;;;;;;;;;5048575;27;20922;-60
2021/04/05 05:32:49;;;;;;;7.10;0.85;;;;;;;;;;5071721;27;20066;-60
2021/04/05 05:35:20;;;;;;;1.23;0.25;;;;;;;;;;5073105;27;20039;-62
2021/04/05 05:37:50;;;;;;;0.95;0.25;;;;;;;;;;5087504;27;20024;-60
2021/04/05 05:40:21;;;;;;;4.43;0.88;;;;;;;;;;5053289;28;20035;-60
2021/04/05 05:43:05;;;;;;;6.60;1.20;;;;;;;;;;5079062;27;20031;-62
2021/04/05 05:45:54;;;;;;;4.32;1.08;;;;;;;;;;5086234;27;20031;-59
2021/04/05 05:48:28;;;;;;;10.38;1.02;;;;;;;;;;5085723;27;20036;-59
2021/04/05 05:50:59;;;;;;;4.47;1.10;;;;;;;;;;5066345;28;20089;-59
2021/04/05 05:53:43;;;;;;;6.75;1.83;;;;;;;;;;5087537;27;20089;-59
2021/04/05 05:56:25;;;;;;;8.48;1.00;;;;;;;;;;5068288;28;20057;-59
2021/04/05 05:58:55;;;;;;;6.40;1.88;;;;;;;;;;5060449;27;20056;-60
2021/04/05 06:01:44;;;;;;;10.75;2.40;;;;;;;;;;5069249;28;20615;-61
2021/04/05 06:04:29;;;;;;;3.60;0.90;;;;;;;;;;5026694;28;20843;-60
2021/04/05 06:06:59;;;;;;;15.68;1.52;;;;;;;;;;5042404;28;20039;-60
2021/04/05 06:09:43;;;;;;;4.85;0.95;;;;;;;;;;5069106;28;20085;-59
2021/04/05 06:12:28;;;;;;;4.38;1.30;;;;;;;;;;5070190;28;20020;-60
2021/04/05 06:15:01;;;;;;;8.57;2.15;;;;;;;;;;5086819;27;20054;-59
2021/04/05 06:17:45;;;;;;;17.70;1.65;;;;;;;;;;5086564;28;20142;-59
2021/04/05 06:20:14;;;;;;;5.57;1.60;;;;;;;;;;5066688;28;20046;-59
2021/04/05 06:22:39;;;;;;;15.77;2.13;;;;;;;;;;5065737;28;20043;-59
2021/04/05 06:25:18;;;;;;;15.23;2.20;;;;;;;;;;5063455;28;20027;-62
2021/04/05 06:27:44;;;;;;;8.90;1.23;;;;;;;;;;5084593;28;20055;-59
2021/04/05 06:30:17;;;;;;;12.00;1.52;;;;;;;;;;5068058;28;20119;-63
2021/04/05 06:32:54;;;;;;;3.72;1.15;;;;;;;;;;5085728;28;20732;-62
2021/04/05 06:35:23;;;;;;;13.73;1.60;;;;;;;;;;5068040;28;20036;-59
2021/04/05 06:37:52;;;;;;;3.13;0.88;;;;;;;;;;5058702;28;20106;-61
2021/04/05 06:40:24;;;;;;;11.85;2.63;;;;;;;;;;5087558;28;20043;-60
2021/04/05 06:43:13;;;;;;;7.20;2.03;;;;;;;;;;5064921;28;20024;-58
2021/04/05 06:45:39;;;;;;;11.98;1.73;;;;;;;;;;5068097;28;20023;-59
2021/04/05 06:48:15;;;;;;;11.27;1.35;;;;;;;;;;5066402;28;20048;-60
2021/04/05 06:51:02;;;;;;;9.60;1.50;;;;;;;;;;5085626;28;20043;-59
2021/04/05 06:53:38;;;;;;;8.35;1.23;;;;;;;;;;5066964;28;20393;-58
2021/04/05 06:56:10;;;;;;;7.47;0.88;;;;;;;;;;5087922;28;20046;-59
2021/04/05 06:58:58;;;;;;;7.28;1.02;;;;;;;;;;5064368;27;20112;-57
2021/04/05 07:01:28;;;;;;;7.85;0.65;;;;;;;;;;5060135;28;20031;-60
2021/04/05 07:03:57;;;;;;;7.18;0.70;;;;;;;;;;5085317;28;20513;-60
2021/04/05 07:06:39;;;;;;;3.95;0.70;;;;;;;;;;5086599;28;20127;-58
2021/04/05 07:09:10;;;;;;;5.72;1.00;;;;;;;;;;5067278;28;20138;-58
2021/04/05 07:11:57;;;;;;;6.88;1.35;;;;;;;;;;5058890;28;20035;-60
2021/04/05 07:14:28;;;;;;;8.23;1.33;;;;;;;;;;5061204;28;20023;-58
2021/04/05 07:17:13;;;;;;;1.77;0.50;;;;;;;;;;5067754;28;20043;-61
2021/04/05 07:19:39;;;;;;;;;;;;;;;;;;5047364;28;20035;-56
2021/04/05 07:22:16;;;;;;;7.38;1.35;;;;;;;;;;5070932;28;21857;-58
2021/04/05 07:24:42;;;;;;;6.35;1.38;;;;;;;;;;5065448;28;20063;-61
2021/04/05 07:27:19;;;;;;;5.13;0.77;;;;;;;;;;5084264;28;20039;-61
2021/04/05 07:29:53;;;;;;;6.28;1.02;;;;;;;;;;5085202;28;20032;-58
2021/04/05 07:32:39;;;;;;;4.65;0.43;;;;;;;;;;5086343;27;20499;-57
2021/04/05 07:35:18;;;;;;;1.63;0.50;;;;;;;;;;5062435;27;20052;-58
2021/04/05 07:38:04;;;;;;;9.65;0.73;;;;;;;;;;5054901;28;20036;-58
2021/04/05 07:40:32;;;;;;;6.50;0.70;;;;;;;;;;5087830;27;20031;-57
2021/04/05 07:43:10;;;;;;;4.80;1.05;;;;;;;;;;5084992;27;20035;-57
2021/04/05 07:45:42;;;;;;;8.82;0.98;;;;;;;;;;5052493;27;20036;-59
2021/04/05 07:48:13;;;;;;;6.03;0.50;;;;;;;;;;5089643;27;20043;-59
2021/04/05 07:50:52;;;;;;;5.43;1.15;;;;;;;;;;5066738;27;20036;-59
2021/04/05 07:53:36;;;;;;;7.40;1.20;;;;;;;;;;5071376;27;20831;-61
2021/04/05 07:56:05;;;;;;;10.13;1.07;;;;;;;;;;5069681;27;20043;-58
2021/04/05 07:58:56;;;;;;;5.00;1.08;;;;;;;;;;5054817;28;20038;-58
2021/04/05 08:01:28;;;;;;;10.93;1.38;;;;;;;;;;5066838;27;20040;-58
2021/04/05 08:03:56;;;;;;;;;;;;;;;;;;5072417;27;20608;-59
2021/04/05 08:06:31;;;;;;;9.18;1.23;;;;;;;;;;5088388;27;19919;-58
2021/04/05 08:09:05;;;;;;;10.63;1.70;;;;;;;;;;5068155;27;20024;-58
2021/04/05 08:11:59;;;;;;;9.07;1.13;;;;;;;;;;5069737;27;20027;-59
2021/04/05 08:14:30;;;;;;;12.32;1.45;;;;;;;;;;5068016;27;20034;-59
2021/04/05 08:17:04;;;;;;;8.73;1.27;;;;;;;;;;5069862;27;20027;-58
2021/04/05 08:19:42;;;;;;;5.38;1.20;;;;;;;;;;5045191;27;20036;-61
2021/04/05 08:22:14;;;;;;;15.35;2.45;;;;;;;;;;5071603;27;20035;-58
2021/04/05 08:24:59;;;;;;;15.73;1.90;;;;;;;;;;5070558;27;20051;-58
2021/04/05 08:27:40;;;;;;;9.43;1.27;;;;;;;;;;5060752;27;20043;-58
2021/04/05 08:30:21;;;;;;;18.05;2.33;;;;;;;;;;5089956;27;20031;-58
2021/04/05 08:32:57;;;;;;;13.65;1.63;;;;;;;;;;5059458;27;20673;-58
2021/04/05 08:35:39;;;;;;;13.20;2.17;;;;;;;;;;5051490;28;20035;-57
2021/04/05 08:38:07;;;;;;;17.58;2.20;;;;;;;;;;5068928;27;20035;-58
2021/04/05 08:40:45;;;;;;;11.63;1.65;;;;;;;;;;5073319;27;20074;-57
2021/04/05 08:43:19;;;;;;;13.65;2.33;;;;;;;;;;5084077;27;20162;-56
2021/04/05 08:45:49;;;;;;;13.82;1.95;;;;;;;;;;5087918;27;20023;-57
2021/04/05 08:48:20;;;;;;;12.70;1.80;;;;;;;;;;5067764;28;20050;-58
2021/04/05 08:50:58;;;;;;;5.53;1.08;;;;;;;;;;5069683;27;20653;-59
2021/04/05 08:53:23;;;;;;;7.20;1.42;;;;;;;;;;5086346;27;20038;-58
2021/04/05 08:55:58;;;;;;;6.38;1.17;;;;;;;;;;5085718;27;20596;-58
2021/04/05 08:58:32;;;;;;;8.07;1.10;;;;;;;;;;5085131;27;21068;-58
2021/04/05 09:01:00;;;;;;;6.05;1.35;;;;;;;;;;5043318;28;21451;-58
2021/04/05 09:03:28;;;;;;;6.95;0.82;;;;;;;;;;5067240;28;20061;-58
2021/04/05 09:05:56;;;;;;;9.77;1.17;;;;;;;;;;5085211;27;22147;-60
2021/04/05 09:08:24;;;;;;;7.20;1.23;;;;;;;;;;5085819;27;20043;-59
2021/04/05 09:10:52;;;;;;;9.05;1.45;;;;;;;;;;5085544;27;20108;-59
2021/04/05 09:13:19;;;;;;;6.43;1.30;;;;;;;;;;5084093;27;20023;-60
2021/04/05 09:16:04;;;;;;;12.90;1.60;;;;;;;;;;5082586;27;20028;-59
2021/04/05 09:18:48;;;;;;;14.95;1.48;;;;;;;;;;5066414;27;20036;-59
2021/04/05 09:21:37;;;;;;;9.50;1.33;;;;;;;;;;5083731;27;20664;-60
2021/04/05 09:24:24;;;;;;;12.43;1.55;;;;;;;;;;5066161;28;20454;-58
2021/04/05 09:26:56;;;;;;;9.35;1.73;;;;;;;;;;5067258;28;20024;-57
2021/04/05 09:29:34;;;;;;;7.35;1.15;;;;;;;;;;5083581;27;20934;-59
2021/04/05 09:32:08;;;;;;;5.10;0.90;;;;;;;;;;5069659;28;20027;-60
2021/04/05 09:34:46;;;;;;;6.93;1.33;;;;;;;;;;5066457;27;20023;-59
2021/04/05 09:37:16;;;;;;;8.25;1.02;;;;;;;;;;5084200;27;22192;-61
2021/04/05 09:39:50;;;;;;;7.88;0.85;;;;;;;;;;5085257;27;20050;-60
2021/04/05 09:42:20;;;;;;;5.88;0.82;;;;;;;;;;5085554;27;20051;-62
2021/04/05 09:45:02;;;;;;;5.50;1.10;;;;;;;;;;5085153;27;20067;-59
2021/04/05 09:47:46;;;;;;;5.57;0.70;;;;;;;;;;5062655;28;20042;-59
2021/04/05 09:50:52;;;;;;;7.60;1.63;;;;;;;;;;5063584;28;20028;-61
2021/04/05 09:53:30;;;;;;;8.63;1.10;;;;;;;;;;4979361;28;20243;-60
2021/04/05 09:56:00;;;;;;;11.23;1.30;;;;;;;;;;5002940;28;20499;-62
2021/04/05 09:58:29;;;;;;;5.38;1.25;;;;;;;;;;5037968;28;20048;-62
2021/04/05 10:00:56;;;;;;;18.48;1.73;;;;;;;;;;5064525;28;20032;-62
2021/04/05 10:03:22;;;;;;;12.70;1.15;;;;;;;;;;5067095;28;20043;-58
2021/04/05 10:05:51;;;;;;;5.68;1.00;;;;;;;;;;5065834;28;20051;-59
2021/04/05 10:08:24;;;;;;;3.25;0.82;;;;;;;;;;5062297;28;20892;-59
2021/04/05 10:10:51;;;;;;;5.97;1.60;;;;;;;;;;5053361;28;20027;-61
2021/04/05 10:13:20;;;;;;;4.10;0.65;;;;;;;;;;5066165;28;20031;-59
2021/04/05 10:15:50;;;;;;;4.20;0.55;;;;;;;;;;5075044;28;20583;-58
2021/04/05 10:18:15;;;;;;;3.85;0.70;;;;;;;;;;5056099;28;20024;-60
2021/04/05 10:20:45;;;;;;;7.80;1.10;;;;;;;;;;5069728;28;20034;-59
2021/04/05 10:23:18;;;;;;;4.57;0.73;;;;;;;;;;5067021;28;20128;-60
2021/04/05 10:25:51;;;;;;;4.32;1.10;;;;;;;;;;5069936;28;20495;-60
2021/04/05 10:28:20;;;;;;;7.20;1.00;;;;;;;;;;5049672;28;20153;-62
2021/04/05 10:30:53;;;;;;;8.32;1.10;;;;;;;;;;5064081;28;20057;-60
2021/04/05 10:33:22;;;;;;;7.53;0.70;;;;;;;;;;5065580;28;20140;-59
2021/04/05 10:35:54;;;;;;;4.40;0.70;;;;;;;;;;5065460;28;20024;-60
2021/04/05 10:38:20;;;;;;;5.88;1.17;;;;;;;;;;5063755;28;20034;-62
2021/04/05 10:40:49;;;;;;;6.30;0.63;;;;;;;;;;5057079;28;20035;-60
2021/04/05 10:43:18;;;;;;;6.22;0.63;;;;;;;;;;5058260;28;20130;-58
2021/04/05 10:45:54;;;;;;;5.50;1.00;;;;;;;;;;5035823;28;20093;-59
2021/04/05 10:48:21;;;;;;;5.93;0.93;;;;;;;;;;5074370;28;20047;-59
2021/04/05 10:50:58;;;;;;;6.10;1.20;;;;;;;;;;5057174;28;20097;-60
2021/04/05 10:53:26;;;;;;;11.73;1.00;;;;;;;;;;5072587;28;20046;-61
2021/04/05 10:55:56;;;;;;;4.20;1.02;;;;;;;;;;5057969;28;20031;-60
2021/04/05 10:58:25;;;;;;;6.18;0.95;;;;;;;;;;5060549;28;20027;-61
2021/04/05 11:00:55;;;;;;;5.13;0.77;;;;;;;;;;5080807;28;20076;-58
2021/04/05 11:03:26;;;;;;;5.47;0.77;;;;;;;;;;5060442;28;20038;-60
2021/04/05 11:05:55;;;;;;;3.90;0.45;;;;;;;;;;5085926;27;20020;-58
2021/04/05 11:08:23;;;;;;;7.70;0.98;;;;;;;;;;5087033;27;20023;-62
2021/04/05 11:11:01;;;;;;;3.42;0.75;;;;;;;;;;5073858;27;20164;-60
2021/04/05 11:13:26;;;;;;;16.42;1.20;;;;;;;;;;5065747;27;20050;-60
2021/04/05 11:15:56;;;;;;;9.13;1.27;;;;;;;;;;5082850;27;20028;-62
2021/04/05 11:18:29;;;;;;;9.93;1.17;;;;;;;;;;5088215;27;20039;-61
2021/04/05 11:20:59;;;;;;;6.28;1.20;;;;;;;;;;5070590;27;20023;-62
2021/04/05 11:23:31;;;;;;;5.75;1.48;;;;;;;;;;5080067;27;20093;-58
2021/04/05 11:26:00;;;;;;;6.68;1.00;;;;;;;;;;5039347;27;20123;-59
2021/04/05 11:28:34;;;;;;;9.13;1.30;;;;;;;;;;5069186;27;20023;-59
2021/04/05 11:31:01;;;;;;;6.43;1.00;;;;;;;;;;5065361;27;20872;-59
2021/04/05 11:33:28;;;;;;;8.32;1.20;;;;;;;;;;5079489;27;20147;-59
2021/04/05 11:35:55;;;;;;;12.68;1.27;;;;;;;;;;5081601;27;20109;-59
2021/04/05 11:38:21;;;;;;;5.97;1.63;;;;;;;;;;5060189;27;20055;-58
2021/04/05 11:40:48;;;;;;;19.27;1.42;;;;;;;;;;5078017;27;20024;-59
2021/04/05 11:43:19;;;;;;;8.68;1.05;;;;;;;;;;5061463;27;20127;-59
2021/04/05 11:45:47;;;;;;;9.98;1.27;;;;;;;;;;5079596;27;20031;-56
2021/04/05 11:48:20;;;;;;;11.70;1.48;;;;;;;;;;5069137;27;22029;-58
2021/04/05 11:50:48;;;;;;;6.85;1.15;;;;;;;;;;5051155;27;22052;-58
2021/04/05 11:53:37;;;;;;;10.80;1.35;;;;;;;;;;5059801;27;20815;-59
2021/04/05 11:56:04;;;;;;;7.57;1.30;;;;;;;;;;5074196;27;20040;-60
2021/04/05 11:58:41;;;;;;;7.47;1.17;;;;;;;;;;5077535;27;22220;-59
2021/04/05 12:01:11;;;;;;;8.18;0.98;;;;;;;;;;5044781;27;22117;-59
2021/04/05 12:03:46;;;;;;;5.45;0.63;;;;;;;;;;5057056;27;20071;-57
2021/04/05 12:06:12;;;;;;;7.22;1.00;;;;;;;;;;5063739;28;20068;-59
2021/04/05 12:08:49;;;;;;;3.88;0.68;;;;;;;;;;5081135;27;21759;-59
2021/04/05 12:11:16;;;;;;;4.15;0.50;;;;;;;;;;5079700;27;20814;-58
2021/04/05 12:13:47;;;;;;;7.95;0.80;;;;;;;;;;5063571;28;20127;-58
2021/04/05 12:16:20;;;;;;;1.60;0.32;;;;;;;;;;5062456;27;20497;-59
2021/04/05 12:18:49;;;;;;;2.25;0.70;;;;;;;;;;5056867;27;20035;-60
2021/04/05 12:21:15;;;;;;;3.40;0.60;;;;;;;;;;5060635;28;20038;-59
2021/04/05 12:23:40;;;;;;;6.70;0.77;;;;;;;;;;5078097;27;20038;-60
2021/04/05 12:26:10;;;;;;;7.68;1.05;;;;;;;;;;5079727;27;20035;-59
2021/04/05 12:28:40;;;;;;;6.97;0.85;;;;;;;;;;5083306;27;20829;-58
2021/04/05 12:31:07;;;;;;;6.90;1.42;;;;;;;;;;5080513;27;20103;-63
2021/04/05 12:33:38;;;;;;;8.45;0.82;;;;;;;;;;5078727;27;20032;-59
2021/04/05 12:36:06;;;;;;;4.30;0.65;;;;;;;;;;5064136;27;20028;-58
2021/04/05 12:38:35;;;;;;;2.60;0.70;;;;;;;;;;5059705;27;20031;-59
2021/04/05 12:41:01;;;;;;;3.42;0.88;;;;;;;;;;5060706;27;20073;-58
2021/04/05 12:43:28;;;;;;;7.18;1.42;;;;;;;;;;5079612;27;20475;-58
2021/04/05 12:45:55;;;;;;;4.50;1.02;;;;;;;;;;5060149;27;20135;-58
2021/04/05 12:48:32;;;;;;;5.07;0.73;;;;;;;;;;5086221;27;20816;-59
2021/04/05 12:51:01;;;;;;;7.65;0.77;;;;;;;;;;5065916;27;20035;-60
2021/04/05 12:53:28;;;;;;;6.28;1.10;;;;;;;;;;5060689;27;20028;-62
2021/04/05 12:55:58;;;;;;;7.60;1.20;;;;;;;;;;5075814;27;20028;-58
2021/04/05 12:58:28;;;;;;;5.70;1.13;;;;;;;;;;5077612;27;20028;-60
2021/04/05 13:00:54;;;;;;;5.60;1.08;;;;;;;;;;5080189;27;20113;-59
2021/04/05 13:03:20;;;;;;;4.15;0.82;;;;;;;;;;5058974;27;20027;-61
2021/04/05 13:05:52;;;;;;;2.92;0.60;;;;;;;;;;5059543;28;20031;-59
2021/04/05 13:08:29;;;;;;;1.83;0.47;;;;;;;;;;5063708;27;20052;-63
2021/04/05 13:11:09;;;;;;;3.10;0.68;;;;;;;;;;5066521;27;20900;-59
2021/04/05 13:13:40;;;;;;;12.77;1.45;;;;;;;;;;5067698;27;20959;-60
2021/04/05 13:16:31;;;;;;;10.88;1.75;;;;;;;;;;5085001;27;20598;-58
2021/04/05 13:19:01;;;;;;;5.88;1.33;;;;;;;;;;5081510;27;20036;-59
2021/04/05 13:21:27;;;;;;;5.28;1.00;;;;;;;;;;5085494;27;20038;-59
2021/04/05 13:23:57;;;;;;;3.25;0.77;;;;;;;;;;5051294;27;20081;-61
2021/04/05 13:26:45;;;;;;;9.20;1.20;;;;;;;;;;5070228;28;20040;-60
2021/04/05 13:29:14;;;;;;;8.25;1.15;;;;;;;;;;5060178;27;20079;-58
2021/04/05 13:31:41;;;;;;;3.85;0.80;;;;;;;;;;5064184;28;20162;-59
2021/04/05 13:34:11;;;;;;;8.25;1.08;;;;;;;;;;5085792;27;20028;-63
2021/04/05 13:36:43;;;;;;;9.43;1.08;;;;;;;;;;5059294;27;21381;-59
2021/04/05 13:39:09;;;;;;;5.50;0.63;;;;;;;;;;5086784;27;20032;-57
2021/04/05 13:41:37;;;;;;;5.22;0.98;;;;;;;;;;5085053;27;20065;-57
2021/04/05 13:44:23;;;;;;;2.58;0.55;;;;;;;;;;5087229;27;20155;-57
2021/04/05 13:46:49;;;;;;;8.55;1.05;;;;;;;;;;5065897;27;20126;-58
2021/04/05 13:49:19;;;;;;;6.85;1.30;;;;;;;;;;5067719;27;20087;-59
2021/04/05 13:51:48;;;;;;;4.60;1.00;;;;;;;;;;5060806;27;22010;-56
2021/04/05 13:54:20;;;;;;;6.82;1.15;;;;;;;;;;5048040;27;20128;-57
2021/04/05 13:56:52;;;;;;;5.78;1.13;;;;;;;;;;5063864;27;20049;-57
2021/04/05 13:59:18;;;;;;;6.28;1.02;;;;;;;;;;5084425;27;20424;-59
2021/04/05 14:01:46;;;;;;;13.35;1.15;;;;;;;;;;5078531;27;20589;-58
2021/04/05 14:04:14;;;;;;;3.88;0.80;;;;;;;;;;5067996;27;20050;-58
2021/04/05 14:06:48;;;;;;;6.50;0.80;;;;;;;;;;5084942;27;21000;-59
2021/04/05 14:09:15;;;;;;;4.10;0.57;;;;;;;;;;5086674;27;20554;-58
2021/04/05 14:11:55;;;;;;;7.18;1.00;;;;;;;;;;5084834;28;20023;-59
2021/04/05 14:14:25;;;;;;;4.43;1.00;;;;;;;;;;5084013;28;22007;-60
2021/04/05 14:16:51;;;;;;;4.53;0.82;;;;;;;;;;5082836;27;20036;-60
2021/04/05 14:19:29;;;;;;;3.53;0.40;;;;;;;;;;5065875;28;20108;-58
2021/04/05 14:22:15;;;;;;;13.90;1.27;;;;;;;;;;5067240;28;20152;-57
2021/04/05 14:24:43;;;;;;;6.85;1.30;;;;;;;;;;5081443;28;20040;-62
2021/04/05 14:27:10;;;;;;;3.95;0.77;;;;;;;;;;5084133;28;20043;-59
2021/04/05 14:29:45;;;;;;;6.85;1.38;;;;;;;;;;5085645;28;20040;-59
2021/04/05 14:32:14;;;;;;;4.82;1.13;;;;;;;;;;5086848;28;20034;-59
2021/04/05 14:34:52;;;;;;;8.38;1.27;;;;;;;;;;5087508;27;20036;-61
2021/04/05 14:37:38;;;;;;;4.03;1.02;;;;;;;;;;5084771;28;20032;-58
2021/04/05 14:40:09;;;;;;;7.95;1.27;;;;;;;;;;5084969;28;20432;-59
2021/04/05 14:42:40;;;;;;;10.98;1.98;;;;;;;;;;5065879;27;20153;-56
2021/04/05 14:45:15;;;;;;;7.03;1.23;;;;;;;;;;5070242;27;20089;-60
2021/04/05 14:47:47;;;;;;;8.77;1.77;;;;;;;;;;5070321;28;20044;-60
2021/04/05 14:50:15;;;;;;;4.35;1.10;;;;;;;;;;5069633;27;20722;-61
2021/04/05 14:52:56;;;;;;;3.70;1.10;;;;;;;;;;5055445;27;20116;-60
2021/04/05 14:55:27;;;;;;;8.07;1.75;;;;;;;;;;5085980;27;20024;-58
2021/04/05 14:57:53;;;;;;;4.40;1.10;;;;;;;;;;5067566;27;20082;-60
2021/04/05 15:00:24;;;;;;;6.53;1.45;;;;;;;;;;5066935;27;20035;-59
2021/04/05 15:02:53;;;;;;;8.77;2.15;;;;;;;;;;5089691;27;20530;-59
2021/04/05 15:05:20;;;;;;;3.65;1.10;;;;;;;;;;5070920;27;20027;-60